createdAt,value
2018-07-22T00:03:31.463Z,96.00
2018-07-22T00:05:59.958Z,95.90
2018-07-22T00:08:28.237Z,95.90
2018-07-22T00:10:56.867Z,95.90
2018-07-22T00:13:25.267Z,95.90
2018-07-22T00:18:21.842Z,97.00
2018-07-22T00:25:47.435Z,96.50
2018-07-22T00:28:15.850Z,96.20
2018-07-22T00:30:45.336Z,96.40
2018-07-22T00:33:14.568Z,96.40
2018-07-22T00:35:42.992Z,96.40
2018-07-22T00:38:11.412Z,96.40
2018-07-22T00:40:39.913Z,96.40
2018-07-22T00:43:10.139Z,96.40
2018-07-22T00:48:07.277Z,97.20
2018-07-22T00:50:35.427Z,97.10
2018-07-22T00:53:03.763Z,97.00
2018-07-22T00:55:32.155Z,97.00
2018-07-22T00:58:00.545Z,97.90
2018-07-22T01:02:56.892Z,98.40
2018-07-22T01:05:24.829Z,98.10
2018-07-22T01:07:53.011Z,97.80
2018-07-22T01:10:21.424Z,97.60
2018-07-22T01:12:49.800Z,98.30
2018-07-22T01:15:19.218Z,98.60
2018-07-22T01:17:48.036Z,98.80
2018-07-22T01:22:44.557Z,98.20
2018-07-22T01:25:13.030Z,98.60
2018-07-22T01:27:41.435Z,98.30
2018-07-22T01:32:39.195Z,97.90
2018-07-22T01:35:07.693Z,97.80
2018-07-22T01:37:35.941Z,97.70
2018-07-22T01:40:04.447Z,97.70
2018-07-22T01:45:01.029Z,97.50
2018-07-22T01:47:29.241Z,97.40
2018-07-22T01:49:57.443Z,97.30
2018-07-22T01:54:53.677Z,97.20
2018-07-22T01:57:23.155Z,97.20
2018-07-22T02:07:16.254Z,97.20
2018-07-22T02:09:44.652Z,97.30
2018-07-22T02:12:13.742Z,97.70
2018-07-22T02:17:09.960Z,97.60
2018-07-22T02:19:38.254Z,97.40
2018-07-22T02:22:06.636Z,97.50
2018-07-22T02:27:03.037Z,97.50
2018-07-22T02:31:59.415Z,97.70
2018-07-22T02:36:56.065Z,97.70
2018-07-22T02:39:24.304Z,97.70
2018-07-22T02:41:52.606Z,97.70
2018-07-22T02:44:20.791Z,98.00
2018-07-22T02:46:49.194Z,97.80
2018-07-22T02:49:17.607Z,97.90
2018-07-22T02:54:14.108Z,98.00
2018-07-22T02:56:42.610Z,98.00
2018-07-22T02:59:10.714Z,98.10
2018-07-22T03:01:39.072Z,98.20
2018-07-22T03:04:07.971Z,98.20
2018-07-22T03:06:36.272Z,98.30
2018-07-22T03:09:06.562Z,98.30
2018-07-22T03:11:34.934Z,98.30
2018-07-22T03:16:31.431Z,98.40
2018-07-22T03:21:27.743Z,98.50
2018-07-22T03:23:56.235Z,98.50
2018-07-22T03:26:24.521Z,98.50
2018-07-22T03:31:20.889Z,98.60
2018-07-22T03:33:48.837Z,98.60
2018-07-22T03:36:17.109Z,98.70
2018-07-22T03:38:45.379Z,98.80
2018-07-22T03:41:13.431Z,98.80
2018-07-22T03:43:41.682Z,98.90
2018-07-22T03:48:38.065Z,98.90
2018-07-22T03:56:02.965Z,99.90
2018-07-22T03:58:31.239Z,99.90
2018-07-22T04:00:59.658Z,99.70
2018-07-22T04:08:25.276Z,99.60
2018-07-22T04:10:53.560Z,99.60
2018-07-22T04:15:49.560Z,99.90
2018-07-22T04:18:17.718Z,99.60
2018-07-22T04:20:46.116Z,99.60
2018-07-22T04:23:18.265Z,99.60
2018-07-22T04:25:46.508Z,99.60
2018-07-22T04:28:14.929Z,99.60
2018-07-22T04:33:12.248Z,99.60
2018-07-22T04:35:41.053Z,99.50
2018-07-22T04:38:09.555Z,99.60
2018-07-22T04:40:37.749Z,99.60
2018-07-22T04:43:05.995Z,99.60
2018-07-22T04:45:34.195Z,99.50
2018-07-22T04:48:02.483Z,99.60
2018-07-22T04:50:30.808Z,99.60
2018-07-22T04:52:58.991Z,99.50
2018-07-22T04:55:27.408Z,99.50
2018-07-22T04:57:55.728Z,99.50
2018-07-22T05:00:24.353Z,99.40
2018-07-22T05:02:52.523Z,99.40
2018-07-22T05:10:17.121Z,99.30
2018-07-22T05:12:45.497Z,99.50
2018-07-22T05:17:41.781Z,99.30
2018-07-22T05:20:10.089Z,99.20
2018-07-22T05:25:07.319Z,99.10
2018-07-22T05:27:35.487Z,99.10
2018-07-22T05:30:04.088Z,99.10
2018-07-22T05:32:37.710Z,99.10
2018-07-22T05:40:02.589Z,98.90
2018-07-22T05:42:30.972Z,99.30
2018-07-22T05:44:59.101Z,99.00
2018-07-22T05:49:55.294Z,99.20
2018-07-22T05:52:23.579Z,98.90
2018-07-22T05:57:20.158Z,98.60
2018-07-22T05:59:48.558Z,98.50
2018-07-22T06:04:45.674Z,98.10
2018-07-22T06:09:41.932Z,97.90
2018-07-22T06:12:10.540Z,97.80
2018-07-22T06:14:38.765Z,97.70
2018-07-22T06:22:09.179Z,97.40
2018-07-22T06:24:37.829Z,97.30
2018-07-22T06:27:09.663Z,97.10
2018-07-22T06:34:34.548Z,96.80
2018-07-22T06:39:31.073Z,96.90
2018-07-22T06:41:59.447Z,95.70
2018-07-22T06:44:27.970Z,95.60
2018-07-22T06:46:56.351Z,95.30
2018-07-22T06:49:24.772Z,95.00
2018-07-22T06:51:53.294Z,94.90
2018-07-22T06:54:21.446Z,94.70
2018-07-22T06:56:49.732Z,94.00
2018-07-22T06:59:18.169Z,94.00
2018-07-22T07:01:46.922Z,93.90
2018-07-22T07:04:15.432Z,93.00
2018-07-22T07:06:43.762Z,92.60
2018-07-22T07:09:12.390Z,92.20
2018-07-22T07:11:40.977Z,92.30
2018-07-22T07:14:10.006Z,91.30
2018-07-22T07:16:39.542Z,91.20
2018-07-22T07:19:07.811Z,90.80
2018-07-22T07:21:36.209Z,90.30
2018-07-22T07:24:04.407Z,90.00
2018-07-22T07:26:33.313Z,89.00
2018-07-22T07:29:01.817Z,88.50
2018-07-22T07:31:30.193Z,88.10
2018-07-22T07:34:00.869Z,88.00
2018-07-22T07:36:29.282Z,87.10
2018-07-22T07:38:57.787Z,86.60
2018-07-22T07:41:26.294Z,85.60
2018-07-22T07:43:54.566Z,84.70
2018-07-22T07:48:51.044Z,83.00
2018-07-22T07:51:19.356Z,79.40
2018-07-22T07:58:44.197Z,79.90
2018-07-22T08:01:14.596Z,79.20
2018-07-22T08:03:42.981Z,77.70
2018-07-22T08:11:07.697Z,76.00
2018-07-22T08:13:36.076Z,75.80
2018-07-22T08:18:33.295Z,75.10
2018-07-22T08:21:01.664Z,74.80
2018-07-22T08:29:36.517Z,72.80
2018-07-22T08:32:05.919Z,72.30
2018-07-22T08:34:38.034Z,71.50
2018-07-22T08:37:08.035Z,69.50
2018-07-22T08:39:36.558Z,68.40
2018-07-22T08:42:06.162Z,67.40
2018-07-22T08:44:34.785Z,68.10
2018-07-22T08:47:03.099Z,66.00
2018-07-22T08:49:31.440Z,60.90
2018-07-22T08:51:59.772Z,59.70
2018-07-22T08:54:28.160Z,60.10
2018-07-22T08:56:56.601Z,60.00
2018-07-22T08:59:24.982Z,60.40
2018-07-22T09:04:23.029Z,61.60
2018-07-22T09:06:51.427Z,59.50
2018-07-22T09:09:19.828Z,59.80
2018-07-22T09:11:48.320Z,60.40
2018-07-22T09:14:16.729Z,60.80
2018-07-22T09:16:48.497Z,60.60
2018-07-22T09:24:13.193Z,60.10
2018-07-22T09:26:43.743Z,59.60
2018-07-22T09:29:12.278Z,59.60
2018-07-22T09:31:40.739Z,59.40
2018-07-22T09:34:09.056Z,58.60
2018-07-22T09:36:38.814Z,58.70
2018-07-22T09:39:09.436Z,59.00
2018-07-22T09:41:37.920Z,58.60
2018-07-22T09:44:07.343Z,58.80
2018-07-22T09:51:49.826Z,58.20
2018-07-22T09:54:18.720Z,57.80
2018-07-22T09:56:47.273Z,57.40
2018-07-22T09:59:15.768Z,57.30
2018-07-22T10:01:44.327Z,55.20
2018-07-22T10:04:25.139Z,55.40
2018-07-22T10:06:54.449Z,54.70
2018-07-22T10:09:22.959Z,55.10
2018-07-22T10:11:51.351Z,55.30
2018-07-22T10:14:34.010Z,54.70
2018-07-22T10:17:02.229Z,55.20
2018-07-22T10:19:30.684Z,54.90
2018-07-22T10:21:59.567Z,55.20
2018-07-22T10:24:37.062Z,55.30
2018-07-22T10:27:05.474Z,55.30
2018-07-22T10:29:33.845Z,55.20
2018-07-22T10:32:02.640Z,55.00
2018-07-22T10:34:33.159Z,54.60
2018-07-22T10:37:02.747Z,55.00
2018-07-22T10:39:31.259Z,54.80
2018-07-22T10:41:59.602Z,54.70
2018-07-22T10:44:28.255Z,53.20
2018-07-22T10:46:56.581Z,53.40
2018-07-22T10:49:24.948Z,54.00
2018-07-22T10:51:53.348Z,54.30
2018-07-22T10:56:49.895Z,54.50
2018-07-22T10:59:18.530Z,53.60
2018-07-22T11:01:50.432Z,53.70
2018-07-22T11:04:19.028Z,54.10
2018-07-22T11:09:16.381Z,54.60
2018-07-22T11:11:58.759Z,54.80
2018-07-22T11:14:27.234Z,55.30
2018-07-22T11:16:55.455Z,55.60
2018-07-22T11:19:40.418Z,56.00
2018-07-22T11:24:37.008Z,56.90
2018-07-22T11:27:05.857Z,56.80
2018-07-22T11:32:38.674Z,56.90
2018-07-22T11:35:07.534Z,56.40
2018-07-22T11:37:37.110Z,55.80
2018-07-22T11:40:05.745Z,56.00
2018-07-22T11:42:44.785Z,56.40
2018-07-22T11:50:27.446Z,57.00
2018-07-22T11:52:55.614Z,57.10
2018-07-22T11:55:24.084Z,57.30
2018-07-22T12:03:46.363Z,56.80
2018-07-22T12:06:14.527Z,56.60
2018-07-22T12:08:43.133Z,56.60
2018-07-22T12:11:18.174Z,56.60
2018-07-22T12:13:46.606Z,57.20
2018-07-22T12:16:15.772Z,56.90
2018-07-22T12:18:48.489Z,56.50
2018-07-22T12:23:45.105Z,56.80
2018-07-22T12:26:31.690Z,56.80
2018-07-22T12:31:28.622Z,56.80
2018-07-22T12:34:12.992Z,56.80
2018-07-22T12:36:41.281Z,56.90
2018-07-22T12:39:11.689Z,57.20
2018-07-22T12:46:54.621Z,58.00
2018-07-22T12:49:22.996Z,58.10
2018-07-22T12:51:51.304Z,58.80
2018-07-22T12:54:19.818Z,59.00
2018-07-22T12:56:48.171Z,59.40
2018-07-22T12:59:17.102Z,59.50
2018-07-22T13:01:45.533Z,59.50
2018-07-22T13:04:16.064Z,59.90
2018-07-22T13:06:44.544Z,59.80
2018-07-22T13:09:12.665Z,59.70
2018-07-22T13:11:41.509Z,59.60
2018-07-22T13:14:09.964Z,59.10
2018-07-22T13:16:38.571Z,59.00
2018-07-22T13:19:06.999Z,59.10
2018-07-22T13:21:35.445Z,59.40
2018-07-22T13:28:59.932Z,60.20
2018-07-22T13:31:28.351Z,60.30
2018-07-22T13:33:56.731Z,59.90
2018-07-22T13:36:25.135Z,59.90
2018-07-22T13:38:54.265Z,59.50
2018-07-22T13:41:22.583Z,59.10
2018-07-22T13:43:51.055Z,59.00
2018-07-22T13:48:47.156Z,58.10
2018-07-22T13:51:15.557Z,57.60
2018-07-22T13:53:44.062Z,57.30
2018-07-22T13:56:12.686Z,56.80
2018-07-22T13:58:41.060Z,56.00
2018-07-22T14:01:09.362Z,55.80
2018-07-22T14:03:38.590Z,55.60
2018-07-22T14:06:07.254Z,55.30
2018-07-22T14:08:35.683Z,54.40
2018-07-22T14:11:04.385Z,54.10
2018-07-22T14:13:32.872Z,53.60
2018-07-22T14:16:01.289Z,53.40
2018-07-22T14:18:29.793Z,53.60
2018-07-22T14:20:57.921Z,53.00
2018-07-22T14:23:26.073Z,52.20
2018-07-22T14:28:23.321Z,51.80
2018-07-22T14:30:51.819Z,52.00
2018-07-22T14:33:20.287Z,51.40
2018-07-22T14:35:48.480Z,51.30
2018-07-22T14:38:16.762Z,51.10
2018-07-22T14:43:13.260Z,50.80
2018-07-22T14:48:09.765Z,50.40
2018-07-22T14:50:38.267Z,50.50
2018-07-22T14:53:06.854Z,50.10
2018-07-22T15:03:00.349Z,49.40
2018-07-22T15:05:28.725Z,50.10
2018-07-22T15:07:57.528Z,50.20
2018-07-22T15:10:25.771Z,50.60
2018-07-22T15:12:54.640Z,50.20
2018-07-22T15:15:22.965Z,49.90
2018-07-22T15:20:19.777Z,50.00
2018-07-22T15:22:48.350Z,49.60
2018-07-22T15:25:20.366Z,49.80
2018-07-22T15:27:48.455Z,49.40
2018-07-22T15:30:16.531Z,49.50
2018-07-22T15:35:13.681Z,49.50
2018-07-22T15:37:42.057Z,49.20
2018-07-22T15:40:10.454Z,49.20
2018-07-22T15:42:38.871Z,49.20
2018-07-22T15:45:09.168Z,49.50
2018-07-22T15:47:37.702Z,49.30
2018-07-22T15:52:38.269Z,49.70
2018-07-22T15:57:34.671Z,49.80
2018-07-22T16:02:31.503Z,49.90
2018-07-22T16:04:59.983Z,50.10
2018-07-22T16:07:28.372Z,50.40
2018-07-22T16:09:56.887Z,50.80
2018-07-22T16:12:25.884Z,51.00
2018-07-22T16:14:54.406Z,51.10
2018-07-22T16:17:22.909Z,51.00
2018-07-22T16:19:51.489Z,51.20
2018-07-22T16:24:56.155Z,51.50
2018-07-22T16:27:24.449Z,51.00
2018-07-22T16:29:52.884Z,50.80
2018-07-22T16:32:24.637Z,51.10
2018-07-22T16:34:52.939Z,51.30
2018-07-22T16:37:21.352Z,50.60
2018-07-22T16:39:49.713Z,50.80
2018-07-22T16:44:46.294Z,50.50
2018-07-22T16:47:14.711Z,51.10
2018-07-22T16:49:45.160Z,52.00
2018-07-22T16:52:13.588Z,51.50
2018-07-22T16:54:41.963Z,51.90
2018-07-22T16:57:29.709Z,52.20
2018-07-22T16:59:58.082Z,52.70
2018-07-22T17:02:26.613Z,52.90
2018-07-22T17:04:55.088Z,53.10
2018-07-22T17:07:37.728Z,53.20
2018-07-22T17:10:06.142Z,53.50
2018-07-22T17:12:34.536Z,53.90
2018-07-22T17:15:15.731Z,54.30
2018-07-22T17:17:43.933Z,54.40
2018-07-22T17:20:12.607Z,54.60
2018-07-22T17:25:19.368Z,55.60
2018-07-22T17:27:47.736Z,55.80
2018-07-22T17:30:20.528Z,56.30
2018-07-22T17:32:49.207Z,56.70
2018-07-22T17:35:17.640Z,57.30
2018-07-22T17:37:46.142Z,57.80
2018-07-22T17:43:22.317Z,58.40
2018-07-22T17:45:50.723Z,58.80
2018-07-22T17:48:19.316Z,59.10
2018-07-22T17:50:59.310Z,59.40
2018-07-22T17:53:27.784Z,59.40
2018-07-22T17:55:56.277Z,59.50
2018-07-22T17:58:24.937Z,59.90
2018-07-22T18:03:56.158Z,60.20
2018-07-22T18:06:24.485Z,60.60
2018-07-22T18:08:52.864Z,61.00
2018-07-22T18:11:22.370Z,61.40
2018-07-22T18:14:01.235Z,61.60
2018-07-22T18:16:29.909Z,62.00
2018-07-22T18:18:58.614Z,62.30
2018-07-22T18:23:54.903Z,62.30
2018-07-22T18:26:23.405Z,62.70
2018-07-22T18:28:51.869Z,62.70
2018-07-22T18:31:20.562Z,62.80
2018-07-22T18:33:49.220Z,62.60
2018-07-22T18:36:18.862Z,62.60
2018-07-22T18:38:47.336Z,62.80
2018-07-22T18:43:44.749Z,63.00
2018-07-22T18:46:13.325Z,63.20
2018-07-22T18:48:41.745Z,63.50
2018-07-22T18:51:09.958Z,63.70
2018-07-22T18:53:38.575Z,64.00
2018-07-22T18:56:07.355Z,64.20
2018-07-22T19:03:45.765Z,65.10
2018-07-22T19:08:42.939Z,65.90
2018-07-22T19:11:11.469Z,66.40
2018-07-22T19:13:40.179Z,66.60
2018-07-22T19:16:13.694Z,67.00
2018-07-22T19:18:42.467Z,67.30
2018-07-22T19:21:10.979Z,68.00
2018-07-22T19:23:39.753Z,68.60
2018-07-22T19:26:11.633Z,69.10
2018-07-22T19:28:40.168Z,69.40
2018-07-22T19:33:37.108Z,70.70
2018-07-22T19:36:10.184Z,71.30
2018-07-22T19:38:38.769Z,71.90
2018-07-22T19:41:07.513Z,72.40
2018-07-22T19:43:36.101Z,72.80
2018-07-22T19:46:09.989Z,73.60
2018-07-22T19:48:39.655Z,74.10
2018-07-22T19:53:37.513Z,75.20
2018-07-22T19:56:09.575Z,75.60
2018-07-22T19:58:38.385Z,76.00
2018-07-22T20:01:07.271Z,76.70
2018-07-22T20:03:36.675Z,77.20
2018-07-22T20:06:05.518Z,77.70
2018-07-22T20:08:34.982Z,78.50
2018-07-22T20:11:03.533Z,79.50
2018-07-22T20:18:28.439Z,81.80
2018-07-22T20:20:56.947Z,82.20
2018-07-22T20:23:27.506Z,82.60
2018-07-22T20:25:55.768Z,83.00
2018-07-22T20:30:52.378Z,83.80
2018-07-22T20:33:20.762Z,84.20
2018-07-22T20:40:45.770Z,85.10
2018-07-22T20:45:46.462Z,86.00
2018-07-22T20:48:14.862Z,86.40
2018-07-22T20:50:43.297Z,86.50
2018-07-22T20:53:11.726Z,86.50
2018-07-22T20:55:40.366Z,86.60
2018-07-22T20:58:08.664Z,86.60
2018-07-22T21:00:36.926Z,86.90
2018-07-22T21:03:05.477Z,86.90
2018-07-22T21:05:34.141Z,86.90
2018-07-22T21:08:02.521Z,87.20
2018-07-22T21:10:31.037Z,87.50
2018-07-22T21:13:10.513Z,87.70
2018-07-22T21:15:39.123Z,87.40
2018-07-22T21:18:07.514Z,88.30
2018-07-22T21:25:35.000Z,89.30
2018-07-22T21:28:03.472Z,89.60
2018-07-22T21:30:39.009Z,89.80
2018-07-22T21:33:07.410Z,90.10
2018-07-22T21:38:04.753Z,90.80
2018-07-22T21:40:33.653Z,90.70
2018-07-22T21:43:01.948Z,90.90
2018-07-22T21:45:30.447Z,91.10
2018-07-22T21:48:04.474Z,91.20
2018-07-22T21:50:33.781Z,91.40
2018-07-22T21:53:02.295Z,91.70
2018-07-22T21:55:30.612Z,91.80
2018-07-22T21:57:59.185Z,91.90
2018-07-22T22:10:33.963Z,92.40
2018-07-22T22:15:31.476Z,92.00
2018-07-22T22:20:30.367Z,91.90
2018-07-22T22:22:58.516Z,91.90
2018-07-22T22:27:55.100Z,91.80
2018-07-22T22:30:23.732Z,92.90
2018-07-22T22:32:52.163Z,93.40
2018-07-22T22:35:20.618Z,93.10
2018-07-22T22:37:48.918Z,92.90
2018-07-22T22:45:14.851Z,92.70
2018-07-22T22:47:43.239Z,92.60
2018-07-22T22:52:39.526Z,93.70
2018-07-22T22:55:07.596Z,94.40
2018-07-22T22:57:35.881Z,95.10
2018-07-22T23:00:11.487Z,94.90
2018-07-22T23:02:39.767Z,95.20
2018-07-22T23:07:36.486Z,95.60
2018-07-22T23:10:08.259Z,95.80
2018-07-22T23:12:36.430Z,96.00
2018-07-22T23:15:04.745Z,96.20
2018-07-22T23:17:33.570Z,96.20
2018-07-22T23:20:07.682Z,96.30
2018-07-22T23:27:32.263Z,96.50
2018-07-22T23:32:28.867Z,96.70
2018-07-22T23:34:57.378Z,96.60
2018-07-22T23:37:25.741Z,96.70
2018-07-22T23:39:53.944Z,96.80
2018-07-22T23:42:22.219Z,96.90
2018-07-22T23:44:50.554Z,97.00
2018-07-22T23:47:20.065Z,97.00
2018-07-22T23:49:48.485Z,97.10
2018-07-22T23:52:16.855Z,97.30
2018-07-22T23:54:45.415Z,97.10
2018-07-22T23:57:13.775Z,97.00
2018-07-22T23:59:42.824Z,97.30
